sensor_id;sensor_type;location;lat;lon;timestamp;P1;durP1;ratioP1;P2;durP2;ratioP2
12591;SDS011;6361;52.120;5.108;2023-08-07T00:00:04;18.08;;;3.28;;
12591;SDS011;6361;52.120;5.108;2023-08-07T00:02:30;14.75;;;3.30;;
12591;SDS011;6361;52.120;5.108;2023-08-07T00:04:56;15.85;;;3.20;;
12591;SDS011;6361;52.120;5.108;2023-08-07T00:07:22;21.70;;;3.55;;
12591;SDS011;6361;52.120;5.108;2023-08-07T00:09:49;15.23;;;3.00;;
12591;SDS011;6361;52.120;5.108;2023-08-07T00:12:15;12.43;;;2.83;;
12591;SDS011;6361;52.120;5.108;2023-08-07T00:14:40;12.98;;;3.08;;
12591;SDS011;6361;52.120;5.108;2023-08-07T00:17:06;10.35;;;2.70;;
12591;SDS011;6361;52.120;5.108;2023-08-07T00:19:31;16.98;;;3.55;;
12591;SDS011;6361;52.120;5.108;2023-08-07T00:21:57;16.98;;;3.72;;
12591;SDS011;6361;52.120;5.108;2023-08-07T00:24:22;15.13;;;3.20;;
12591;SDS011;6361;52.120;5.108;2023-08-07T00:26:47;13.15;;;2.80;;
12591;SDS011;6361;52.120;5.108;2023-08-07T00:29:13;18.27;;;3.03;;
12591;SDS011;6361;52.120;5.108;2023-08-07T00:31:38;17.65;;;2.92;;
12591;SDS011;6361;52.120;5.108;2023-08-07T00:34:03;12.90;;;2.67;;
12591;SDS011;6361;52.120;5.108;2023-08-07T00:36:29;16.15;;;3.00;;
12591;SDS011;6361;52.120;5.108;2023-08-07T00:38:56;13.38;;;2.60;;
12591;SDS011;6361;52.120;5.108;2023-08-07T00:41:21;10.38;;;2.63;;
12591;SDS011;6361;52.120;5.108;2023-08-07T00:43:47;11.45;;;2.63;;
12591;SDS011;6361;52.120;5.108;2023-08-07T00:46:12;12.52;;;2.63;;
12591;SDS011;6361;52.120;5.108;2023-08-07T00:48:37;10.95;;;1.90;;
12591;SDS011;6361;52.120;5.108;2023-08-07T00:51:04;8.68;;;2.60;;
12591;SDS011;6361;52.120;5.108;2023-08-07T00:53:30;8.90;;;2.20;;
12591;SDS011;6361;52.120;5.108;2023-08-07T00:55:55;9.77;;;2.30;;
12591;SDS011;6361;52.120;5.108;2023-08-07T00:58:22;11.88;;;2.28;;
12591;SDS011;6361;52.120;5.108;2023-08-07T01:00:48;5.57;;;1.88;;
12591;SDS011;6361;52.120;5.108;2023-08-07T01:03:13;8.85;;;2.00;;
12591;SDS011;6361;52.120;5.108;2023-08-07T01:05:39;13.32;;;2.35;;
12591;SDS011;6361;52.120;5.108;2023-08-07T01:08:04;12.65;;;2.00;;
12591;SDS011;6361;52.120;5.108;2023-08-07T01:13:07;12.82;;;2.33;;
12591;SDS011;6361;52.120;5.108;2023-08-07T01:15:36;12.15;;;2.05;;
12591;SDS011;6361;52.120;5.108;2023-08-07T01:18:02;8.98;;;2.38;;
12591;SDS011;6361;52.120;5.108;2023-08-07T01:20:29;14.45;;;2.35;;
12591;SDS011;6361;52.120;5.108;2023-08-07T01:22:55;7.70;;;1.92;;
12591;SDS011;6361;52.120;5.108;2023-08-07T01:25:21;11.00;;;1.98;;
12591;SDS011;6361;52.120;5.108;2023-08-07T01:27:50;11.13;;;2.70;;
12591;SDS011;6361;52.120;5.108;2023-08-07T01:32:59;9.20;;;2.00;;
12591;SDS011;6361;52.120;5.108;2023-08-07T01:37:54;9.43;;;1.85;;
12591;SDS011;6361;52.120;5.108;2023-08-07T01:40:21;13.30;;;2.22;;
12591;SDS011;6361;52.120;5.108;2023-08-07T01:42:47;10.27;;;2.00;;
12591;SDS011;6361;52.120;5.108;2023-08-07T01:45:12;9.77;;;2.05;;
12591;SDS011;6361;52.120;5.108;2023-08-07T01:47:38;10.18;;;2.38;;
12591;SDS011;6361;52.120;5.108;2023-08-07T01:50:03;8.70;;;2.38;;
12591;SDS011;6361;52.120;5.108;2023-08-07T01:52:29;11.50;;;2.28;;
12591;SDS011;6361;52.120;5.108;2023-08-07T01:54:54;9.80;;;2.30;;
12591;SDS011;6361;52.120;5.108;2023-08-07T01:57:20;10.63;;;2.30;;
12591;SDS011;6361;52.120;5.108;2023-08-07T01:59:45;13.98;;;2.45;;
12591;SDS011;6361;52.120;5.108;2023-08-07T02:02:11;10.85;;;2.00;;
12591;SDS011;6361;52.120;5.108;2023-08-07T02:04:36;11.30;;;2.42;;
12591;SDS011;6361;52.120;5.108;2023-08-07T02:07:01;10.75;;;2.10;;
12591;SDS011;6361;52.120;5.108;2023-08-07T02:09:27;9.45;;;2.13;;
12591;SDS011;6361;52.120;5.108;2023-08-07T02:11:52;15.18;;;2.03;;
12591;SDS011;6361;52.120;5.108;2023-08-07T02:14:18;10.18;;;2.25;;
12591;SDS011;6361;52.120;5.108;2023-08-07T02:16:43;7.78;;;2.10;;
12591;SDS011;6361;52.120;5.108;2023-08-07T02:19:08;16.92;;;2.67;;
12591;SDS011;6361;52.120;5.108;2023-08-07T02:21:34;12.55;;;2.42;;
12591;SDS011;6361;52.120;5.108;2023-08-07T02:23:59;11.00;;;2.33;;
12591;SDS011;6361;52.120;5.108;2023-08-07T02:26:24;11.38;;;2.40;;
12591;SDS011;6361;52.120;5.108;2023-08-07T02:28:50;13.23;;;2.85;;
12591;SDS011;6361;52.120;5.108;2023-08-07T02:31:15;12.50;;;2.60;;
12591;SDS011;6361;52.120;5.108;2023-08-07T02:33:40;9.30;;;2.50;;
12591;SDS011;6361;52.120;5.108;2023-08-07T02:36:06;11.60;;;2.72;;
12591;SDS011;6361;52.120;5.108;2023-08-07T02:38:32;13.65;;;2.58;;
12591;SDS011;6361;52.120;5.108;2023-08-07T02:40:57;13.13;;;2.53;;
12591;SDS011;6361;52.120;5.108;2023-08-07T02:43:22;11.98;;;2.90;;
12591;SDS011;6361;52.120;5.108;2023-08-07T02:45:48;13.60;;;2.55;;
12591;SDS011;6361;52.120;5.108;2023-08-07T02:48:13;15.02;;;2.97;;
12591;SDS011;6361;52.120;5.108;2023-08-07T02:50:39;10.88;;;2.47;;
12591;SDS011;6361;52.120;5.108;2023-08-07T02:53:04;16.35;;;3.00;;
12591;SDS011;6361;52.120;5.108;2023-08-07T02:55:29;13.93;;;2.60;;
12591;SDS011;6361;52.120;5.108;2023-08-07T02:57:55;11.80;;;2.47;;
12591;SDS011;6361;52.120;5.108;2023-08-07T03:00:20;18.92;;;2.78;;
12591;SDS011;6361;52.120;5.108;2023-08-07T03:02:48;11.73;;;2.38;;
12591;SDS011;6361;52.120;5.108;2023-08-07T03:05:13;12.23;;;2.58;;
12591;SDS011;6361;52.120;5.108;2023-08-07T03:07:39;12.02;;;2.55;;
12591;SDS011;6361;52.120;5.108;2023-08-07T03:10:04;12.65;;;2.78;;
12591;SDS011;6361;52.120;5.108;2023-08-07T03:12:30;17.00;;;2.80;;
12591;SDS011;6361;52.120;5.108;2023-08-07T03:14:56;14.52;;;2.75;;
12591;SDS011;6361;52.120;5.108;2023-08-07T03:17:21;8.30;;;2.75;;
12591;SDS011;6361;52.120;5.108;2023-08-07T03:19:47;9.13;;;2.50;;
12591;SDS011;6361;52.120;5.108;2023-08-07T03:22:12;10.52;;;2.30;;
12591;SDS011;6361;52.120;5.108;2023-08-07T03:24:38;7.70;;;2.22;;
12591;SDS011;6361;52.120;5.108;2023-08-07T03:27:03;8.68;;;2.10;;
12591;SDS011;6361;52.120;5.108;2023-08-07T03:29:29;10.10;;;2.38;;
12591;SDS011;6361;52.120;5.108;2023-08-07T03:31:54;6.47;;;2.30;;
12591;SDS011;6361;52.120;5.108;2023-08-07T03:34:22;6.32;;;2.47;;
12591;SDS011;6361;52.120;5.108;2023-08-07T03:36:47;7.43;;;2.35;;
12591;SDS011;6361;52.120;5.108;2023-08-07T03:39:13;8.25;;;2.30;;
12591;SDS011;6361;52.120;5.108;2023-08-07T03:41:38;9.48;;;2.42;;
12591;SDS011;6361;52.120;5.108;2023-08-07T03:44:04;12.77;;;2.88;;
12591;SDS011;6361;52.120;5.108;2023-08-07T03:46:30;10.23;;;2.90;;
12591;SDS011;6361;52.120;5.108;2023-08-07T03:48:55;10.68;;;3.42;;
12591;SDS011;6361;52.120;5.108;2023-08-07T03:51:20;13.45;;;3.38;;
12591;SDS011;6361;52.120;5.108;2023-08-07T03:53:46;15.57;;;3.13;;
12591;SDS011;6361;52.120;5.108;2023-08-07T03:56:11;14.73;;;3.03;;
12591;SDS011;6361;52.120;5.108;2023-08-07T03:58:36;20.88;;;3.28;;
12591;SDS011;6361;52.120;5.108;2023-08-07T04:01:02;17.55;;;3.35;;
12591;SDS011;6361;52.120;5.108;2023-08-07T04:03:27;17.77;;;3.40;;
12591;SDS011;6361;52.120;5.108;2023-08-07T04:05:53;13.77;;;3.00;;
12591;SDS011;6361;52.120;5.108;2023-08-07T04:08:20;14.40;;;3.65;;
12591;SDS011;6361;52.120;5.108;2023-08-07T04:10:45;11.60;;;2.67;;
12591;SDS011;6361;52.120;5.108;2023-08-07T04:13:11;11.60;;;2.47;;
12591;SDS011;6361;52.120;5.108;2023-08-07T04:15:37;10.95;;;2.78;;
12591;SDS011;6361;52.120;5.108;2023-08-07T04:18:02;11.85;;;2.88;;
12591;SDS011;6361;52.120;5.108;2023-08-07T04:20:27;10.18;;;2.65;;
12591;SDS011;6361;52.120;5.108;2023-08-07T04:22:53;12.63;;;2.90;;
12591;SDS011;6361;52.120;5.108;2023-08-07T04:25:18;10.80;;;2.80;;
12591;SDS011;6361;52.120;5.108;2023-08-07T04:27:43;9.88;;;2.65;;
12591;SDS011;6361;52.120;5.108;2023-08-07T04:30:09;11.15;;;2.42;;
12591;SDS011;6361;52.120;5.108;2023-08-07T04:32:37;14.15;;;2.75;;
12591;SDS011;6361;52.120;5.108;2023-08-07T04:35:03;15.52;;;3.08;;
12591;SDS011;6361;52.120;5.108;2023-08-07T04:37:28;15.30;;;3.00;;
12591;SDS011;6361;52.120;5.108;2023-08-07T04:39:55;8.75;;;2.47;;
12591;SDS011;6361;52.120;5.108;2023-08-07T04:42:20;11.30;;;3.00;;
12591;SDS011;6361;52.120;5.108;2023-08-07T04:44:46;14.13;;;2.95;;
12591;SDS011;6361;52.120;5.108;2023-08-07T04:47:11;10.02;;;3.40;;
12591;SDS011;6361;52.120;5.108;2023-08-07T04:49:37;21.65;;;3.70;;
12591;SDS011;6361;52.120;5.108;2023-08-07T04:52:02;16.10;;;2.92;;
12591;SDS011;6361;52.120;5.108;2023-08-07T04:54:27;14.32;;;3.30;;
12591;SDS011;6361;52.120;5.108;2023-08-07T04:56:53;15.02;;;3.50;;
12591;SDS011;6361;52.120;5.108;2023-08-07T04:59:18;16.08;;;3.60;;
12591;SDS011;6361;52.120;5.108;2023-08-07T05:01:44;16.02;;;3.25;;
12591;SDS011;6361;52.120;5.108;2023-08-07T05:04:09;13.73;;;3.13;;
12591;SDS011;6361;52.120;5.108;2023-08-07T05:06:35;13.23;;;3.05;;
12591;SDS011;6361;52.120;5.108;2023-08-07T05:09:00;18.20;;;3.42;;
12591;SDS011;6361;52.120;5.108;2023-08-07T05:11:25;16.08;;;3.50;;
12591;SDS011;6361;52.120;5.108;2023-08-07T05:13:51;14.85;;;3.20;;
12591;SDS011;6361;52.120;5.108;2023-08-07T05:16:16;11.20;;;3.20;;
12591;SDS011;6361;52.120;5.108;2023-08-07T05:18:43;15.32;;;3.10;;
12591;SDS011;6361;52.120;5.108;2023-08-07T05:21:09;16.70;;;3.30;;
12591;SDS011;6361;52.120;5.108;2023-08-07T05:23:34;15.05;;;3.33;;
12591;SDS011;6361;52.120;5.108;2023-08-07T05:26:00;12.18;;;2.85;;
12591;SDS011;6361;52.120;5.108;2023-08-07T05:28:25;20.10;;;3.00;;
12591;SDS011;6361;52.120;5.108;2023-08-07T05:30:50;14.93;;;2.90;;
12591;SDS011;6361;52.120;5.108;2023-08-07T05:33:16;15.73;;;4.10;;
12591;SDS011;6361;52.120;5.108;2023-08-07T05:35:41;11.40;;;2.88;;
12591;SDS011;6361;52.120;5.108;2023-08-07T05:38:07;15.43;;;3.08;;
12591;SDS011;6361;52.120;5.108;2023-08-07T05:40:33;14.45;;;3.17;;
12591;SDS011;6361;52.120;5.108;2023-08-07T05:43:00;15.50;;;2.70;;
12591;SDS011;6361;52.120;5.108;2023-08-07T05:45:26;12.65;;;2.80;;
12591;SDS011;6361;52.120;5.108;2023-08-07T05:47:51;13.73;;;2.83;;
12591;SDS011;6361;52.120;5.108;2023-08-07T05:50:16;16.00;;;3.38;;
12591;SDS011;6361;52.120;5.108;2023-08-07T05:52:42;17.20;;;3.60;;
12591;SDS011;6361;52.120;5.108;2023-08-07T05:55:07;15.80;;;3.22;;
12591;SDS011;6361;52.120;5.108;2023-08-07T05:57:33;13.27;;;3.50;;
12591;SDS011;6361;52.120;5.108;2023-08-07T05:59:58;13.40;;;3.22;;
12591;SDS011;6361;52.120;5.108;2023-08-07T06:02:24;14.48;;;3.53;;
12591;SDS011;6361;52.120;5.108;2023-08-07T06:04:49;12.43;;;3.17;;
12591;SDS011;6361;52.120;5.108;2023-08-07T06:07:15;10.82;;;3.25;;
12591;SDS011;6361;52.120;5.108;2023-08-07T06:09:40;17.08;;;3.45;;
12591;SDS011;6361;52.120;5.108;2023-08-07T06:12:06;20.60;;;4.40;;
12591;SDS011;6361;52.120;5.108;2023-08-07T06:14:31;14.82;;;3.42;;
12591;SDS011;6361;52.120;5.108;2023-08-07T06:16:57;14.25;;;3.20;;
12591;SDS011;6361;52.120;5.108;2023-08-07T06:19:26;12.95;;;3.60;;
12591;SDS011;6361;52.120;5.108;2023-08-07T06:21:52;14.15;;;3.28;;
12591;SDS011;6361;52.120;5.108;2023-08-07T06:24:18;15.65;;;3.53;;
12591;SDS011;6361;52.120;5.108;2023-08-07T06:26:43;14.20;;;3.38;;
12591;SDS011;6361;52.120;5.108;2023-08-07T06:29:08;14.77;;;3.45;;
12591;SDS011;6361;52.120;5.108;2023-08-07T06:31:34;11.93;;;3.20;;
12591;SDS011;6361;52.120;5.108;2023-08-07T06:33:59;12.43;;;3.58;;
12591;SDS011;6361;52.120;5.108;2023-08-07T06:36:25;11.60;;;2.90;;
12591;SDS011;6361;52.120;5.108;2023-08-07T06:38:51;14.77;;;2.70;;
12591;SDS011;6361;52.120;5.108;2023-08-07T06:41:16;14.52;;;3.05;;
12591;SDS011;6361;52.120;5.108;2023-08-07T06:43:41;11.15;;;3.28;;
12591;SDS011;6361;52.120;5.108;2023-08-07T06:46:07;13.75;;;2.80;;
12591;SDS011;6361;52.120;5.108;2023-08-07T06:48:32;13.52;;;2.97;;
12591;SDS011;6361;52.120;5.108;2023-08-07T06:50:57;15.05;;;2.92;;
12591;SDS011;6361;52.120;5.108;2023-08-07T06:53:23;14.10;;;3.25;;
12591;SDS011;6361;52.120;5.108;2023-08-07T06:55:48;9.48;;;2.85;;
12591;SDS011;6361;52.120;5.108;2023-08-07T06:58:14;12.68;;;2.90;;
12591;SDS011;6361;52.120;5.108;2023-08-07T07:00:39;10.05;;;2.97;;
12591;SDS011;6361;52.120;5.108;2023-08-07T07:03:04;12.52;;;3.20;;
12591;SDS011;6361;52.120;5.108;2023-08-07T07:05:31;14.27;;;3.28;;
12591;SDS011;6361;52.120;5.108;2023-08-07T07:07:57;11.32;;;2.80;;
12591;SDS011;6361;52.120;5.108;2023-08-07T07:10:22;13.52;;;3.25;;
12591;SDS011;6361;52.120;5.108;2023-08-07T07:12:48;13.25;;;3.47;;
12591;SDS011;6361;52.120;5.108;2023-08-07T07:15:13;17.05;;;3.58;;
12591;SDS011;6361;52.120;5.108;2023-08-07T07:17:39;18.02;;;3.75;;
12591;SDS011;6361;52.120;5.108;2023-08-07T07:20:04;12.27;;;4.18;;
12591;SDS011;6361;52.120;5.108;2023-08-07T07:22:30;11.65;;;3.22;;
12591;SDS011;6361;52.120;5.108;2023-08-07T07:24:55;10.52;;;3.70;;
12591;SDS011;6361;52.120;5.108;2023-08-07T07:27:21;15.25;;;3.25;;
12591;SDS011;6361;52.120;5.108;2023-08-07T07:29:47;11.20;;;3.17;;
12591;SDS011;6361;52.120;5.108;2023-08-07T07:32:13;12.70;;;3.50;;
12591;SDS011;6361;52.120;5.108;2023-08-07T07:34:38;13.18;;;3.65;;
12591;SDS011;6361;52.120;5.108;2023-08-07T07:37:04;11.50;;;2.80;;
12591;SDS011;6361;52.120;5.108;2023-08-07T07:39:29;18.17;;;3.75;;
12591;SDS011;6361;52.120;5.108;2023-08-07T07:41:55;11.45;;;2.80;;
12591;SDS011;6361;52.120;5.108;2023-08-07T07:44:20;13.50;;;2.80;;
12591;SDS011;6361;52.120;5.108;2023-08-07T07:46:46;12.73;;;2.75;;
12591;SDS011;6361;52.120;5.108;2023-08-07T07:49:11;13.93;;;2.53;;
12591;SDS011;6361;52.120;5.108;2023-08-07T07:51:36;12.38;;;2.80;;
12591;SDS011;6361;52.120;5.108;2023-08-07T07:54:02;13.93;;;3.05;;
12591;SDS011;6361;52.120;5.108;2023-08-07T07:56:28;11.15;;;2.67;;
12591;SDS011;6361;52.120;5.108;2023-08-07T07:58:53;12.35;;;2.60;;
12591;SDS011;6361;52.120;5.108;2023-08-07T08:01:18;11.93;;;2.50;;
12591;SDS011;6361;52.120;5.108;2023-08-07T08:03:44;11.95;;;2.40;;
12591;SDS011;6361;52.120;5.108;2023-08-07T08:06:12;13.40;;;2.53;;
12591;SDS011;6361;52.120;5.108;2023-08-07T08:08:38;9.82;;;2.47;;
12591;SDS011;6361;52.120;5.108;2023-08-07T08:11:04;10.75;;;2.80;;
12591;SDS011;6361;52.120;5.108;2023-08-07T08:13:29;16.83;;;2.72;;
12591;SDS011;6361;52.120;5.108;2023-08-07T08:15:55;11.70;;;2.65;;
12591;SDS011;6361;52.120;5.108;2023-08-07T08:18:20;15.45;;;2.80;;
12591;SDS011;6361;52.120;5.108;2023-08-07T08:20:45;9.60;;;2.80;;
12591;SDS011;6361;52.120;5.108;2023-08-07T08:23:11;8.25;;;2.70;;
12591;SDS011;6361;52.120;5.108;2023-08-07T08:25:36;11.13;;;3.00;;
12591;SDS011;6361;52.120;5.108;2023-08-07T08:28:02;8.52;;;2.72;;
12591;SDS011;6361;52.120;5.108;2023-08-07T08:30:27;9.57;;;2.72;;
12591;SDS011;6361;52.120;5.108;2023-08-07T08:32:53;14.30;;;2.90;;
12591;SDS011;6361;52.120;5.108;2023-08-07T08:35:19;15.25;;;2.30;;
12591;SDS011;6361;52.120;5.108;2023-08-07T08:37:44;10.07;;;2.40;;
12591;SDS011;6361;52.120;5.108;2023-08-07T08:40:09;11.52;;;2.40;;
12591;SDS011;6361;52.120;5.108;2023-08-07T08:42:37;7.85;;;2.40;;
12591;SDS011;6361;52.120;5.108;2023-08-07T08:45:04;12.90;;;2.38;;
12591;SDS011;6361;52.120;5.108;2023-08-07T08:47:30;12.27;;;2.60;;
12591;SDS011;6361;52.120;5.108;2023-08-07T08:50:07;12.98;;;2.20;;
12591;SDS011;6361;52.120;5.108;2023-08-07T08:52:33;10.73;;;2.25;;
12591;SDS011;6361;52.120;5.108;2023-08-07T08:55:01;9.40;;;2.35;;
12591;SDS011;6361;52.120;5.108;2023-08-07T08:57:26;9.27;;;2.50;;
12591;SDS011;6361;52.120;5.108;2023-08-07T08:59:53;12.20;;;2.85;;
12591;SDS011;6361;52.120;5.108;2023-08-07T09:02:18;12.02;;;2.65;;
12591;SDS011;6361;52.120;5.108;2023-08-07T09:04:44;13.23;;;2.67;;
12591;SDS011;6361;52.120;5.108;2023-08-07T09:07:15;11.98;;;2.38;;
12591;SDS011;6361;52.120;5.108;2023-08-07T09:09:43;9.68;;;2.38;;
12591;SDS011;6361;52.120;5.108;2023-08-07T09:12:12;15.65;;;3.50;;
12591;SDS011;6361;52.120;5.108;2023-08-07T09:14:42;14.02;;;2.72;;
12591;SDS011;6361;52.120;5.108;2023-08-07T09:17:09;11.52;;;2.25;;
12591;SDS011;6361;52.120;5.108;2023-08-07T09:19:35;10.35;;;2.50;;
12591;SDS011;6361;52.120;5.108;2023-08-07T09:22:01;13.73;;;2.70;;
12591;SDS011;6361;52.120;5.108;2023-08-07T09:24:26;8.55;;;2.40;;
12591;SDS011;6361;52.120;5.108;2023-08-07T09:26:51;10.15;;;2.63;;
12591;SDS011;6361;52.120;5.108;2023-08-07T09:29:18;11.95;;;2.60;;
12591;SDS011;6361;52.120;5.108;2023-08-07T09:31:44;6.65;;;2.15;;
12591;SDS011;6361;52.120;5.108;2023-08-07T09:34:12;12.07;;;2.53;;
12591;SDS011;6361;52.120;5.108;2023-08-07T09:36:41;10.80;;;2.40;;
12591;SDS011;6361;52.120;5.108;2023-08-07T09:39:06;11.43;;;2.80;;
12591;SDS011;6361;52.120;5.108;2023-08-07T09:41:32;13.85;;;2.42;;
12591;SDS011;6361;52.120;5.108;2023-08-07T09:44:00;9.90;;;2.10;;
12591;SDS011;6361;52.120;5.108;2023-08-07T09:46:31;11.23;;;2.42;;
12591;SDS011;6361;52.120;5.108;2023-08-07T09:49:02;14.38;;;2.85;;
12591;SDS011;6361;52.120;5.108;2023-08-07T09:51:40;15.45;;;2.67;;
12591;SDS011;6361;52.120;5.108;2023-08-07T09:54:09;12.68;;;2.60;;
12591;SDS011;6361;52.120;5.108;2023-08-07T09:56:36;11.60;;;2.50;;
12591;SDS011;6361;52.120;5.108;2023-08-07T09:59:03;7.93;;;2.35;;
12591;SDS011;6361;52.120;5.108;2023-08-07T10:01:29;12.07;;;2.75;;
12591;SDS011;6361;52.120;5.108;2023-08-07T10:03:54;12.68;;;2.40;;
12591;SDS011;6361;52.120;5.108;2023-08-07T10:06:20;11.65;;;2.70;;
12591;SDS011;6361;52.120;5.108;2023-08-07T10:08:45;9.20;;;2.17;;
12591;SDS011;6361;52.120;5.108;2023-08-07T10:11:11;7.55;;;2.35;;
12591;SDS011;6361;52.120;5.108;2023-08-07T10:13:37;12.07;;;2.63;;
12591;SDS011;6361;52.120;5.108;2023-08-07T10:16:03;9.63;;;2.30;;
12591;SDS011;6361;52.120;5.108;2023-08-07T10:18:29;10.98;;;2.63;;
12591;SDS011;6361;52.120;5.108;2023-08-07T10:20:54;9.68;;;2.90;;
12591;SDS011;6361;52.120;5.108;2023-08-07T10:23:21;9.68;;;2.45;;
12591;SDS011;6361;52.120;5.108;2023-08-07T10:25:46;11.23;;;2.28;;
12591;SDS011;6361;52.120;5.108;2023-08-07T10:28:14;6.93;;;2.55;;
12591;SDS011;6361;52.120;5.108;2023-08-07T10:30:42;8.18;;;2.35;;
12591;SDS011;6361;52.120;5.108;2023-08-07T10:33:08;9.40;;;2.70;;
12591;SDS011;6361;52.120;5.108;2023-08-07T10:35:34;7.53;;;2.33;;
12591;SDS011;6361;52.120;5.108;2023-08-07T10:38:06;10.90;;;2.40;;
12591;SDS011;6361;52.120;5.108;2023-08-07T10:43:39;9.32;;;2.13;;
12591;SDS011;6361;52.120;5.108;2023-08-07T10:46:06;9.57;;;2.00;;
12591;SDS011;6361;52.120;5.108;2023-08-07T10:48:39;14.10;;;2.22;;
12591;SDS011;6361;52.120;5.108;2023-08-07T10:51:05;9.82;;;2.28;;
12591;SDS011;6361;52.120;5.108;2023-08-07T10:55:57;8.48;;;2.00;;
12591;SDS011;6361;52.120;5.108;2023-08-07T10:58:26;6.95;;;2.40;;
12591;SDS011;6361;52.120;5.108;2023-08-07T11:03:45;5.72;;;2.13;;
12591;SDS011;6361;52.120;5.108;2023-08-07T11:06:11;8.45;;;2.40;;
12591;SDS011;6361;52.120;5.108;2023-08-07T11:08:37;9.80;;;2.70;;
12591;SDS011;6361;52.120;5.108;2023-08-07T11:11:04;11.48;;;2.97;;
12591;SDS011;6361;52.120;5.108;2023-08-07T11:13:30;10.93;;;2.58;;
12591;SDS011;6361;52.120;5.108;2023-08-07T11:15:55;9.77;;;2.13;;
12591;SDS011;6361;52.120;5.108;2023-08-07T11:18:22;7.68;;;2.08;;
12591;SDS011;6361;52.120;5.108;2023-08-07T11:20:48;12.15;;;2.67;;
12591;SDS011;6361;52.120;5.108;2023-08-07T11:23:13;10.55;;;2.40;;
12591;SDS011;6361;52.120;5.108;2023-08-07T11:25:38;16.15;;;2.85;;
12591;SDS011;6361;52.120;5.108;2023-08-07T11:28:04;6.75;;;2.30;;
12591;SDS011;6361;52.120;5.108;2023-08-07T11:30:29;6.65;;;2.00;;
12591;SDS011;6361;52.120;5.108;2023-08-07T11:32:56;14.32;;;2.60;;
12591;SDS011;6361;52.120;5.108;2023-08-07T11:35:22;5.63;;;1.88;;
12591;SDS011;6361;52.120;5.108;2023-08-07T11:37:47;7.82;;;1.95;;
12591;SDS011;6361;52.120;5.108;2023-08-07T11:40:13;10.05;;;2.55;;
12591;SDS011;6361;52.120;5.108;2023-08-07T11:42:39;7.95;;;2.25;;
12591;SDS011;6361;52.120;5.108;2023-08-07T11:45:05;10.52;;;2.33;;
12591;SDS011;6361;52.120;5.108;2023-08-07T11:47:31;6.93;;;1.98;;
12591;SDS011;6361;52.120;5.108;2023-08-07T11:49:56;6.80;;;2.10;;
12591;SDS011;6361;52.120;5.108;2023-08-07T11:52:22;6.60;;;2.10;;
12591;SDS011;6361;52.120;5.108;2023-08-07T11:54:48;6.88;;;1.98;;
12591;SDS011;6361;52.120;5.108;2023-08-07T11:57:15;9.48;;;2.10;;
12591;SDS011;6361;52.120;5.108;2023-08-07T11:59:41;8.30;;;1.90;;
12591;SDS011;6361;52.120;5.108;2023-08-07T12:02:10;11.07;;;2.00;;
12591;SDS011;6361;52.120;5.108;2023-08-07T12:04:39;7.95;;;2.20;;
12591;SDS011;6361;52.120;5.108;2023-08-07T12:07:05;11.07;;;2.40;;
12591;SDS011;6361;52.120;5.108;2023-08-07T12:09:30;8.55;;;2.20;;
12591;SDS011;6361;52.120;5.108;2023-08-07T12:11:56;11.68;;;2.60;;
12591;SDS011;6361;52.120;5.108;2023-08-07T12:14:22;6.93;;;2.03;;
12591;SDS011;6361;52.120;5.108;2023-08-07T12:16:48;9.70;;;2.20;;
12591;SDS011;6361;52.120;5.108;2023-08-07T12:19:15;9.30;;;2.22;;
12591;SDS011;6361;52.120;5.108;2023-08-07T12:21:41;9.48;;;2.28;;
12591;SDS011;6361;52.120;5.108;2023-08-07T12:24:07;9.65;;;2.40;;
12591;SDS011;6361;52.120;5.108;2023-08-07T12:26:32;7.28;;;2.15;;
12591;SDS011;6361;52.120;5.108;2023-08-07T12:28:58;7.75;;;1.92;;
12591;SDS011;6361;52.120;5.108;2023-08-07T12:31:23;5.15;;;1.90;;
12591;SDS011;6361;52.120;5.108;2023-08-07T12:33:48;5.53;;;1.77;;
12591;SDS011;6361;52.120;5.108;2023-08-07T12:36:14;7.40;;;1.88;;
12591;SDS011;6361;52.120;5.108;2023-08-07T12:38:40;6.07;;;1.63;;
12591;SDS011;6361;52.120;5.108;2023-08-07T12:41:05;5.30;;;1.90;;
12591;SDS011;6361;52.120;5.108;2023-08-07T12:43:31;9.10;;;1.77;;
12591;SDS011;6361;52.120;5.108;2023-08-07T12:45:56;4.78;;;1.70;;
12591;SDS011;6361;52.120;5.108;2023-08-07T12:48:24;7.05;;;1.83;;
12591;SDS011;6361;52.120;5.108;2023-08-07T12:50:51;9.52;;;1.98;;
12591;SDS011;6361;52.120;5.108;2023-08-07T12:53:17;9.07;;;1.90;;
12591;SDS011;6361;52.120;5.108;2023-08-07T12:55:42;7.13;;;1.98;;
12591;SDS011;6361;52.120;5.108;2023-08-07T12:58:07;6.53;;;1.90;;
12591;SDS011;6361;52.120;5.108;2023-08-07T13:00:33;10.00;;;2.30;;
12591;SDS011;6361;52.120;5.108;2023-08-07T13:02:58;11.75;;;2.40;;
12591;SDS011;6361;52.120;5.108;2023-08-07T13:05:24;4.97;;;1.77;;
12591;SDS011;6361;52.120;5.108;2023-08-07T13:07:49;8.35;;;1.85;;
12591;SDS011;6361;52.120;5.108;2023-08-07T13:10:18;5.55;;;1.88;;
12591;SDS011;6361;52.120;5.108;2023-08-07T13:12:44;7.00;;;2.10;;
12591;SDS011;6361;52.120;5.108;2023-08-07T13:15:13;6.32;;;1.70;;
12591;SDS011;6361;52.120;5.108;2023-08-07T13:17:39;4.93;;;1.70;;
12591;SDS011;6361;52.120;5.108;2023-08-07T13:20:05;7.43;;;1.63;;
12591;SDS011;6361;52.120;5.108;2023-08-07T13:22:37;6.70;;;1.60;;
12591;SDS011;6361;52.120;5.108;2023-08-07T13:25:03;5.38;;;1.83;;
12591;SDS011;6361;52.120;5.108;2023-08-07T13:27:29;8.88;;;1.98;;
12591;SDS011;6361;52.120;5.108;2023-08-07T13:29:55;3.85;;;1.83;;
12591;SDS011;6361;52.120;5.108;2023-08-07T13:32:21;9.20;;;2.17;;
12591;SDS011;6361;52.120;5.108;2023-08-07T13:34:46;3.85;;;1.55;;
12591;SDS011;6361;52.120;5.108;2023-08-07T13:37:11;3.83;;;1.25;;
12591;SDS011;6361;52.120;5.108;2023-08-07T13:39:38;4.25;;;1.65;;
12591;SDS011;6361;52.120;5.108;2023-08-07T13:42:03;6.15;;;2.05;;
12591;SDS011;6361;52.120;5.108;2023-08-07T13:44:28;7.50;;;1.80;;
12591;SDS011;6361;52.120;5.108;2023-08-07T13:46:54;9.13;;;1.92;;
12591;SDS011;6361;52.120;5.108;2023-08-07T13:49:20;6.75;;;1.70;;
12591;SDS011;6361;52.120;5.108;2023-08-07T13:51:46;4.53;;;1.50;;
12591;SDS011;6361;52.120;5.108;2023-08-07T13:54:12;4.63;;;1.60;;
12591;SDS011;6361;52.120;5.108;2023-08-07T13:56:37;4.47;;;1.70;;
12591;SDS011;6361;52.120;5.108;2023-08-07T13:59:03;5.53;;;1.65;;
12591;SDS011;6361;52.120;5.108;2023-08-07T14:01:28;3.92;;;1.73;;
12591;SDS011;6361;52.120;5.108;2023-08-07T14:03:54;4.38;;;1.80;;
12591;SDS011;6361;52.120;5.108;2023-08-07T14:06:19;4.03;;;1.45;;
12591;SDS011;6361;52.120;5.108;2023-08-07T14:08:45;3.70;;;1.60;;
12591;SDS011;6361;52.120;5.108;2023-08-07T14:11:12;5.47;;;1.70;;
12591;SDS011;6361;52.120;5.108;2023-08-07T14:13:39;3.53;;;1.50;;
12591;SDS011;6361;52.120;5.108;2023-08-07T14:16:04;3.40;;;1.52;;
12591;SDS011;6361;52.120;5.108;2023-08-07T14:18:30;4.32;;;1.60;;
12591;SDS011;6361;52.120;5.108;2023-08-07T14:20:55;3.17;;;1.58;;
12591;SDS011;6361;52.120;5.108;2023-08-07T14:23:21;3.67;;;1.67;;
12591;SDS011;6361;52.120;5.108;2023-08-07T14:25:46;3.33;;;1.77;;
12591;SDS011;6361;52.120;5.108;2023-08-07T14:28:15;5.18;;;1.92;;
12591;SDS011;6361;52.120;5.108;2023-08-07T14:30:41;3.92;;;1.70;;
12591;SDS011;6361;52.120;5.108;2023-08-07T14:33:06;5.93;;;1.85;;
12591;SDS011;6361;52.120;5.108;2023-08-07T14:35:31;6.45;;;2.28;;
12591;SDS011;6361;52.120;5.108;2023-08-07T14:37:57;4.80;;;1.90;;
12591;SDS011;6361;52.120;5.108;2023-08-07T14:40:22;6.72;;;2.00;;
12591;SDS011;6361;52.120;5.108;2023-08-07T14:42:48;17.38;;;3.17;;
12591;SDS011;6361;52.120;5.108;2023-08-07T14:45:13;6.65;;;2.20;;
12591;SDS011;6361;52.120;5.108;2023-08-07T14:47:40;8.55;;;2.40;;
12591;SDS011;6361;52.120;5.108;2023-08-07T14:50:06;22.05;;;4.45;;
12591;SDS011;6361;52.120;5.108;2023-08-07T14:52:31;11.75;;;2.78;;
12591;SDS011;6361;52.120;5.108;2023-08-07T14:54:57;41.20;;;6.78;;
12591;SDS011;6361;52.120;5.108;2023-08-07T14:57:23;9.10;;;2.28;;
12591;SDS011;6361;52.120;5.108;2023-08-07T14:59:49;7.15;;;2.00;;